Time;durP1;ratioP1;P1;durP2;ratioP2;P2;SDS_P1;SDS_P2;PMS_P1;PMS_P2;Temp;Humidity;BMP_temperature;BMP_pressure;BME280_temperature;BME280_humidity;BME280_pressure;Samples;Min_cycle;Max_cycle;Signal;HPM_P1;HPM_P2
2023/09/18 00:00:17;;;;;;;5.30;4.80;;;;;;;;;;5033452;28;20204;-82
2023/09/18 00:02:43;;;;;;;5.33;4.83;;;;;;;;;;5033451;28;20510;-82
2023/09/18 00:05:09;;;;;;;5.07;4.07;;;;;;;;;;5033016;28;20908;-78
2023/09/18 00:07:35;;;;;;;4.60;4.03;;;;;;;;;;5033269;28;20412;-80
2023/09/18 00:10:01;;;;;;;4.20;3.80;;;;;;;;;;5033061;28;20503;-80
2023/09/18 00:12:27;;;;;;;5.50;4.20;;;;;;;;;;5048628;28;20173;-80
2023/09/18 00:14:53;;;;;;;5.67;5.07;;;;;;;;;;5033228;28;20187;-80
2023/09/18 00:17:19;;;;;;;4.77;4.37;;;;;;;;;;5033267;28;20513;-80
2023/09/18 00:19:51;;;;;;;4.77;4.27;;;;;;;;;;5032883;28;20878;-80
2023/09/18 00:22:17;;;;;;;6.33;4.90;;;;;;;;;;5033132;28;20447;-80
2023/09/18 00:24:43;;;;;;;6.90;4.60;;;;;;;;;;5033090;28;20444;-80
2023/09/18 00:27:11;;;;;;;5.17;4.77;;;;;;;;;;5033114;28;20412;-80
2023/09/18 00:29:37;;;;;;;4.30;3.73;;;;;;;;;;5033019;28;20533;-80
2023/09/18 00:32:03;;;;;;;5.57;4.40;;;;;;;;;;5033078;28;20503;-80
2023/09/18 00:34:31;;;;;;;4.33;3.90;;;;;;;;;;5032448;28;20420;-80
2023/09/18 00:36:58;;;;;;;4.20;3.80;;;;;;;;;;5032799;28;20815;-82
2023/09/18 00:39:24;;;;;;;7.80;4.23;;;;;;;;;;5032883;28;20445;-80
2023/09/18 00:41:53;;;;;;;6.00;4.13;;;;;;;;;;5032960;28;20918;-80
2023/09/18 00:44:19;;;;;;;4.90;4.40;;;;;;;;;;5032866;28;20642;-80
2023/09/18 00:46:45;;;;;;;4.87;4.20;;;;;;;;;;5032896;28;20449;-82
2023/09/18 00:49:12;;;;;;;4.50;4.10;;;;;;;;;;5032479;28;20795;-82
2023/09/18 00:51:44;;;;;;;4.60;4.10;;;;;;;;;;5032808;28;20822;-80
2023/09/18 00:54:10;;;;;;;5.00;4.60;;;;;;;;;;5032854;28;20440;-80
2023/09/18 00:56:36;;;;;;;4.67;4.10;;;;;;;;;;5034277;28;20483;-80
2023/09/18 00:59:03;;;;;;;8.03;5.57;;;;;;;;;;5036780;28;20528;-81
2023/09/18 01:01:29;;;;;;;6.30;3.70;;;;;;;;;;5036859;28;20413;-80
2023/09/18 01:03:56;;;;;;;5.87;4.90;;;;;;;;;;5036584;28;20414;-80
2023/09/18 01:06:21;;;;;;;5.07;4.57;;;;;;;;;;5036629;28;21025;-81
2023/09/18 01:08:53;;;;;;;6.00;5.17;;;;;;;;;;5036757;28;20412;-81
2023/09/18 01:11:23;;;;;;;5.33;4.50;;;;;;;;;;5036525;28;20522;-81
2023/09/18 01:13:55;;;;;;;5.20;4.70;;;;;;;;;;5036610;28;20412;-80
2023/09/18 01:16:25;;;;;;;5.70;4.30;;;;;;;;;;5036636;28;20423;-80
2023/09/18 01:18:51;;;;;;;5.00;4.50;;;;;;;;;;5036553;28;20412;-81
2023/09/18 01:21:20;;;;;;;5.10;4.27;;;;;;;;;;5036292;28;20453;-83
2023/09/18 01:23:49;;;;;;;4.93;4.43;;;;;;;;;;5036427;28;20411;-82
2023/09/18 01:26:15;;;;;;;4.60;4.20;;;;;;;;;;5036344;28;20438;-82
2023/09/18 01:28:41;;;;;;;5.37;4.80;;;;;;;;;;5036329;28;20901;-81
2023/09/18 01:31:07;;;;;;;5.10;4.70;;;;;;;;;;5036229;28;20482;-82
2023/09/18 01:33:34;;;;;;;5.50;4.97;;;;;;;;;;5036221;28;20260;-83
2023/09/18 01:36:00;;;;;;;4.17;3.77;;;;;;;;;;5035803;28;20420;-83
2023/09/18 01:38:26;;;;;;;5.10;4.70;;;;;;;;;;5051524;28;20434;-80
2023/09/18 01:40:54;;;;;;;5.80;5.30;;;;;;;;;;5036093;28;20424;-83
2023/09/18 01:43:20;;;;;;;4.47;4.10;;;;;;;;;;5036000;28;20410;-81
2023/09/18 01:45:47;;;;;;;4.73;4.33;;;;;;;;;;5035980;28;20430;-83
2023/09/18 01:48:13;;;;;;;4.27;3.97;;;;;;;;;;5035926;28;20416;-81
2023/09/18 01:50:42;;;;;;;5.27;4.77;;;;;;;;;;5035415;28;20820;-82
2023/09/18 01:53:08;;;;;;;6.30;5.70;;;;;;;;;;5035827;28;20205;-84
2023/09/18 01:55:34;;;;;;;6.20;5.43;;;;;;;;;;5035865;28;20509;-84
2023/09/18 01:58:00;;;;;;;5.00;4.33;;;;;;;;;;5035711;28;20443;-82
2023/09/18 02:00:26;;;;;;;5.50;4.80;;;;;;;;;;5035741;28;20436;-82
2023/09/18 02:02:52;;;;;;;5.90;4.93;;;;;;;;;;5053598;28;20908;-81
2023/09/18 02:05:17;;;;;;;5.40;4.97;;;;;;;;;;5055201;28;20483;-83
2023/09/18 02:07:43;;;;;;;5.67;5.17;;;;;;;;;;5055392;28;20897;-83
2023/09/18 02:10:12;;;;;;;3.97;3.57;;;;;;;;;;5055221;28;20282;-83
2023/09/18 02:12:38;;;;;;;5.90;4.80;;;;;;;;;;5055391;28;20199;-83
2023/09/18 02:15:06;;;;;;;5.03;4.53;;;;;;;;;;5055355;28;20899;-83
2023/09/18 02:17:35;;;;;;;5.07;4.57;;;;;;;;;;5055315;28;20532;-83
2023/09/18 02:20:04;;;;;;;5.40;4.90;;;;;;;;;;5053645;28;20426;-83
2023/09/18 02:22:32;;;;;;;4.60;4.20;;;;;;;;;;5055228;28;20423;-83
2023/09/18 02:24:58;;;;;;;6.10;5.50;;;;;;;;;;5055167;28;20409;-85
2023/09/18 02:27:24;;;;;;;6.97;5.50;;;;;;;;;;5055106;28;20835;-83
2023/09/18 02:29:53;;;;;;;6.67;5.23;;;;;;;;;;5055066;28;20198;-83
2023/09/18 02:32:19;;;;;;;5.70;5.20;;;;;;;;;;5054831;28;20446;-85
2023/09/18 02:34:45;;;;;;;6.40;5.17;;;;;;;;;;5054223;28;20862;-83
2023/09/18 02:37:11;;;;;;;4.90;4.40;;;;;;;;;;5054428;28;20175;-82
2023/09/18 02:39:37;;;;;;;6.33;4.70;;;;;;;;;;5053564;28;20797;-84
2023/09/18 02:42:03;;;;;;;6.17;4.80;;;;;;;;;;5053840;28;20266;-85
2023/09/18 02:44:32;;;;;;;5.77;5.13;;;;;;;;;;5054916;28;20801;-86
2023/09/18 02:46:58;;;;;;;5.30;4.80;;;;;;;;;;5054878;28;20406;-83
2023/09/18 02:49:24;;;;;;;7.20;4.53;;;;;;;;;;5054453;28;20415;-80
2023/09/18 02:51:50;;;;;;;5.23;4.20;;;;;;;;;;5054604;28;20836;-80
2023/09/18 02:54:16;;;;;;;5.00;4.50;;;;;;;;;;5054614;28;20177;-80
2023/09/18 02:56:41;;;;;;;5.77;5.00;;;;;;;;;;5054576;28;20180;-83
2023/09/18 02:59:08;;;;;;;6.67;5.13;;;;;;;;;;5054599;28;20181;-80
2023/09/18 03:01:34;;;;;;;5.07;4.57;;;;;;;;;;5054553;28;20175;-80
2023/09/18 03:04:01;;;;;;;10.23;5.63;;;;;;;;;;5054019;28;20437;-80
2023/09/18 03:06:27;;;;;;;4.90;4.50;;;;;;;;;;5054452;28;20509;-81
2023/09/18 03:08:53;;;;;;;6.30;5.70;;;;;;;;;;5053068;28;20971;-80
2023/09/18 03:11:18;;;;;;;5.50;4.70;;;;;;;;;;5054225;28;20304;-84
2023/09/18 03:13:46;;;;;;;5.83;5.30;;;;;;;;;;5054194;28;20506;-80
2023/09/18 03:16:12;;;;;;;6.03;5.47;;;;;;;;;;5054356;28;20181;-81
2023/09/18 03:18:38;;;;;;;5.93;5.33;;;;;;;;;;5053367;28;20517;-81
2023/09/18 03:21:04;;;;;;;5.63;4.57;;;;;;;;;;5054004;28;20231;-82
2023/09/18 03:23:30;;;;;;;5.37;4.60;;;;;;;;;;5054036;28;20413;-79
2023/09/18 03:25:56;;;;;;;6.40;5.87;;;;;;;;;;5054080;28;20465;-80
2023/09/18 03:28:22;;;;;;;5.30;4.80;;;;;;;;;;5053982;28;20421;-80
2023/09/18 03:30:47;;;;;;;6.00;5.40;;;;;;;;;;5053880;28;20476;-79
2023/09/18 03:33:13;;;;;;;6.33;5.73;;;;;;;;;;5053808;28;20405;-79
2023/09/18 03:35:47;;;;;;;5.30;4.80;;;;;;;;;;5053437;28;20693;-79
2023/09/18 03:38:13;;;;;;;5.30;4.90;;;;;;;;;;5053797;28;20418;-80
2023/09/18 03:40:39;;;;;;;5.90;5.40;;;;;;;;;;5053721;28;20448;-80
2023/09/18 03:43:05;;;;;;;5.90;5.13;;;;;;;;;;5053675;28;20414;-80
2023/09/18 03:45:31;;;;;;;7.23;5.57;;;;;;;;;;5053665;28;20746;-80
2023/09/18 03:48:00;;;;;;;7.17;6.50;;;;;;;;;;5052221;28;20524;-80
2023/09/18 03:50:27;;;;;;;6.93;5.70;;;;;;;;;;5053135;28;20201;-84
2023/09/18 03:52:53;;;;;;;6.30;5.70;;;;;;;;;;5052566;28;20734;-81
2023/09/18 03:55:18;;;;;;;8.50;5.53;;;;;;;;;;5053526;28;20407;-80
2023/09/18 03:57:47;;;;;;;5.13;4.43;;;;;;;;;;5053253;28;20176;-79
2023/09/18 04:00:13;;;;;;;6.10;5.50;;;;;;;;;;5052157;28;20930;-80
2023/09/18 04:02:39;;;;;;;6.20;5.60;;;;;;;;;;5053354;28;20464;-80
2023/09/18 04:05:05;;;;;;;6.40;5.70;;;;;;;;;;5051367;28;21027;-79
2023/09/18 04:07:31;;;;;;;6.00;5.50;;;;;;;;;;5053366;28;20176;-82
2023/09/18 04:09:57;;;;;;;5.30;4.70;;;;;;;;;;5052995;28;20470;-81
2023/09/18 04:12:23;;;;;;;6.93;6.33;;;;;;;;;;5051953;28;20457;-80
2023/09/18 04:14:49;;;;;;;5.93;5.33;;;;;;;;;;5053105;28;20447;-81
2023/09/18 04:17:15;;;;;;;6.93;5.50;;;;;;;;;;5053109;28;20428;-81
2023/09/18 04:19:43;;;;;;;6.07;5.53;;;;;;;;;;5051514;28;20504;-81
2023/09/18 04:22:09;;;;;;;6.50;5.50;;;;;;;;;;5053072;28;20911;-81
2023/09/18 04:24:35;;;;;;;7.13;6.43;;;;;;;;;;5053019;28;20481;-81
2023/09/18 04:27:00;;;;;;;5.97;5.37;;;;;;;;;;5052673;28;20178;-81
2023/09/18 04:29:26;;;;;;;6.13;5.50;;;;;;;;;;5052916;28;20428;-81
2023/09/18 04:31:54;;;;;;;8.37;6.23;;;;;;;;;;5051985;28;20473;-81
2023/09/18 04:34:20;;;;;;;5.70;5.10;;;;;;;;;;5052716;28;20162;-80
2023/09/18 04:36:46;;;;;;;6.10;5.50;;;;;;;;;;5052882;28;20934;-82
2023/09/18 04:39:12;;;;;;;6.13;5.57;;;;;;;;;;5052823;28;20410;-81
2023/09/18 04:41:38;;;;;;;7.70;6.00;;;;;;;;;;5052675;28;20409;-80
2023/09/18 04:44:05;;;;;;;7.20;6.03;;;;;;;;;;5051365;28;20634;-81
2023/09/18 04:46:31;;;;;;;6.67;5.23;;;;;;;;;;5052749;28;20441;-82
2023/09/18 04:48:57;;;;;;;7.37;5.73;;;;;;;;;;5052358;28;20419;-83
2023/09/18 04:51:23;;;;;;;5.90;5.43;;;;;;;;;;5052630;28;20473;-83
2023/09/18 04:53:48;;;;;;;6.10;5.07;;;;;;;;;;5052593;28;20415;-82
2023/09/18 04:56:14;;;;;;;5.80;4.93;;;;;;;;;;5052610;28;20476;-82
2023/09/18 04:58:40;;;;;;;6.17;5.67;;;;;;;;;;5052605;28;20447;-83
2023/09/18 05:01:06;;;;;;;6.07;5.50;;;;;;;;;;5052631;28;20189;-83
2023/09/18 05:03:36;;;;;;;7.00;6.37;;;;;;;;;;5052293;28;20179;-82
2023/09/18 05:06:02;;;;;;;6.63;6.03;;;;;;;;;;5052424;28;20414;-84
2023/09/18 05:08:28;;;;;;;6.20;5.60;;;;;;;;;;5051403;28;20470;-84
2023/09/18 05:10:54;;;;;;;6.17;5.57;;;;;;;;;;5052299;28;20945;-84
2023/09/18 05:13:20;;;;;;;5.90;5.40;;;;;;;;;;5052501;28;20243;-84
2023/09/18 05:15:46;;;;;;;6.47;5.80;;;;;;;;;;5052546;28;20253;-84
2023/09/18 05:18:13;;;;;;;6.90;6.20;;;;;;;;;;5052319;28;20716;-84
2023/09/18 05:20:38;;;;;;;7.80;7.00;;;;;;;;;;5052663;28;20177;-85
2023/09/18 05:23:04;;;;;;;7.57;6.63;;;;;;;;;;5052174;28;20501;-84
2023/09/18 05:25:32;;;;;;;5.53;5.00;;;;;;;;;;5051168;28;20177;-85
2023/09/18 05:28:01;;;;;;;8.10;7.30;;;;;;;;;;5052474;28;20415;-84
2023/09/18 05:30:29;;;;;;;6.47;5.87;;;;;;;;;;5052280;28;21007;-85
2023/09/18 05:32:55;;;;;;;6.00;5.40;;;;;;;;;;5052311;28;20425;-84
2023/09/18 05:35:22;;;;;;;6.27;5.60;;;;;;;;;;5052007;28;20420;-84
2023/09/18 05:37:50;;;;;;;6.27;5.77;;;;;;;;;;5052369;28;20407;-85
2023/09/18 05:40:16;;;;;;;6.87;5.90;;;;;;;;;;5052378;28;20449;-84
2023/09/18 05:42:43;;;;;;;5.80;5.20;;;;;;;;;;5053714;28;20433;-84
2023/09/18 05:45:09;;;;;;;5.20;4.70;;;;;;;;;;5055952;28;20180;-83
2023/09/18 05:47:35;;;;;;;6.43;5.80;;;;;;;;;;5054552;28;20433;-81
2023/09/18 05:50:06;;;;;;;5.67;5.17;;;;;;;;;;5055323;28;20468;-81
2023/09/18 05:52:32;;;;;;;7.57;6.90;;;;;;;;;;5055901;28;20417;-81
2023/09/18 05:54:58;;;;;;;6.00;5.40;;;;;;;;;;5055704;28;20898;-81
2023/09/18 05:57:24;;;;;;;6.03;5.30;;;;;;;;;;5055651;28;20178;-81
2023/09/18 05:59:50;;;;;;;6.27;5.60;;;;;;;;;;5055546;28;20413;-81
2023/09/18 06:02:16;;;;;;;6.73;6.13;;;;;;;;;;5054346;28;20185;-81
2023/09/18 06:04:43;;;;;;;6.60;5.17;;;;;;;;;;5055241;28;20411;-81
2023/09/18 06:07:09;;;;;;;6.10;5.30;;;;;;;;;;5055547;28;20565;-81
2023/09/18 06:09:34;;;;;;;5.53;5.03;;;;;;;;;;5055211;28;20542;-81
2023/09/18 06:12:00;;;;;;;6.37;5.80;;;;;;;;;;5054032;28;20306;-81
2023/09/18 06:14:26;;;;;;;6.77;6.10;;;;;;;;;;5054095;28;20315;-80
2023/09/18 06:16:52;;;;;;;6.63;6.03;;;;;;;;;;5055202;28;20438;-85
2023/09/18 06:19:18;;;;;;;6.40;5.90;;;;;;;;;;5054956;28;20181;-81
2023/09/18 06:21:44;;;;;;;6.90;6.30;;;;;;;;;;5055197;28;20187;-81
2023/09/18 06:24:10;;;;;;;6.13;5.53;;;;;;;;;;5055199;28;20177;-80
2023/09/18 06:26:36;;;;;;;5.80;5.20;;;;;;;;;;5055216;28;20423;-80
2023/09/18 06:29:03;;;;;;;6.03;5.53;;;;;;;;;;5055033;28;20454;-80
2023/09/18 06:31:30;;;;;;;5.67;5.13;;;;;;;;;;5055024;28;20215;-80
2023/09/18 06:33:56;;;;;;;6.57;5.97;;;;;;;;;;5053451;28;20939;-81
2023/09/18 06:36:22;;;;;;;5.50;5.00;;;;;;;;;;5055010;28;20450;-80
2023/09/18 06:38:48;;;;;;;10.13;5.77;;;;;;;;;;5054970;28;20252;-80
2023/09/18 06:41:14;;;;;;;5.60;5.03;;;;;;;;;;5054844;28;20430;-80
2023/09/18 06:43:40;;;;;;;6.13;5.53;;;;;;;;;;5054793;28;20177;-79
2023/09/18 06:46:07;;;;;;;5.97;5.37;;;;;;;;;;5054790;28;20493;-80
2023/09/18 06:48:34;;;;;;;10.07;5.63;;;;;;;;;;5054424;28;20530;-80
2023/09/18 06:51:00;;;;;;;6.17;5.67;;;;;;;;;;5054637;28;20461;-81
2023/09/18 06:53:29;;;;;;;7.13;6.43;;;;;;;;;;5054148;28;20403;-81
2023/09/18 06:55:55;;;;;;;6.87;6.03;;;;;;;;;;5054189;28;20234;-81
2023/09/18 06:58:21;;;;;;;6.67;5.63;;;;;;;;;;5054544;28;20412;-80
2023/09/18 07:00:50;;;;;;;6.10;5.57;;;;;;;;;;5054537;28;20929;-80
2023/09/18 07:03:17;;;;;;;5.80;5.20;;;;;;;;;;5054117;28;20476;-79
2023/09/18 07:05:43;;;;;;;6.20;5.33;;;;;;;;;;5053203;28;20510;-80
2023/09/18 07:08:11;;;;;;;5.73;5.10;;;;;;;;;;5054344;28;20503;-81
2023/09/18 07:10:38;;;;;;;5.77;4.73;;;;;;;;;;5054036;28;20610;-78
2023/09/18 07:13:04;;;;;;;6.03;5.43;;;;;;;;;;5054321;28;20435;-80
2023/09/18 07:15:30;;;;;;;5.90;5.40;;;;;;;;;;5054194;28;20970;-80
2023/09/18 07:17:56;;;;;;;5.13;4.53;;;;;;;;;;5053939;28;20769;-79
2023/09/18 07:20:23;;;;;;;6.50;4.93;;;;;;;;;;5054142;28;20404;-81
2023/09/18 07:22:52;;;;;;;6.30;5.30;;;;;;;;;;5054080;28;20192;-79
2023/09/18 07:25:18;;;;;;;6.30;5.70;;;;;;;;;;5053864;28;20412;-80
2023/09/18 07:27:44;;;;;;;5.80;4.70;;;;;;;;;;5054006;28;20409;-81
2023/09/18 07:30:11;;;;;;;4.80;4.30;;;;;;;;;;5053812;28;20215;-80
2023/09/18 07:32:37;;;;;;;5.90;5.00;;;;;;;;;;5053899;28;20444;-82
2023/09/18 07:35:07;;;;;;;5.23;4.83;;;;;;;;;;5053471;28;20422;-79
2023/09/18 07:37:33;;;;;;;4.93;4.53;;;;;;;;;;5053858;28;20410;-80
2023/09/18 07:39:58;;;;;;;8.60;5.60;;;;;;;;;;5053731;28;20497;-80
2023/09/18 07:42:25;;;;;;;5.00;4.50;;;;;;;;;;5052400;28;20278;-86
2023/09/18 07:44:54;;;;;;;5.60;5.03;;;;;;;;;;5053734;28;20548;-81
2023/09/18 07:47:22;;;;;;;6.63;6.00;;;;;;;;;;5053572;28;20436;-82
2023/09/18 07:49:48;;;;;;;7.10;4.63;;;;;;;;;;5053170;28;20968;-81
2023/09/18 07:52:15;;;;;;;5.47;4.97;;;;;;;;;;5053663;28;20521;-81
2023/09/18 07:54:41;;;;;;;8.33;7.40;;;;;;;;;;5053611;28;20403;-80
2023/09/18 07:57:09;;;;;;;5.40;4.90;;;;;;;;;;5052001;28;20897;-81
2023/09/18 07:59:35;;;;;;;6.40;5.80;;;;;;;;;;5053392;28;20899;-81
2023/09/18 08:02:01;;;;;;;6.13;5.53;;;;;;;;;;5053406;28;20505;-78
2023/09/18 08:04:27;;;;;;;6.30;5.70;;;;;;;;;;5052978;28;20559;-81
2023/09/18 08:06:52;;;;;;;6.17;5.60;;;;;;;;;;5052842;28;20417;-80
2023/09/18 08:09:22;;;;;;;6.97;5.57;;;;;;;;;;5053055;28;20228;-80
2023/09/18 08:11:49;;;;;;;4.50;3.87;;;;;;;;;;5051941;28;20215;-78
2023/09/18 08:14:15;;;;;;;5.07;4.67;;;;;;;;;;5053260;28;20931;-81
2023/09/18 08:16:41;;;;;;;5.90;5.20;;;;;;;;;;5053144;28;20418;-82
2023/09/18 08:19:07;;;;;;;5.00;4.50;;;;;;;;;;5052760;28;20245;-79
2023/09/18 08:21:33;;;;;;;6.40;4.70;;;;;;;;;;5053102;28;20885;-80
2023/09/18 08:23:59;;;;;;;5.40;4.80;;;;;;;;;;5052927;28;20178;-82
2023/09/18 08:26:27;;;;;;;4.87;4.33;;;;;;;;;;5052906;28;20418;-82
2023/09/18 08:28:53;;;;;;;6.00;5.40;;;;;;;;;;5052923;28;20405;-82
2023/09/18 08:31:19;;;;;;;5.43;4.93;;;;;;;;;;5051603;28;20866;-81
2023/09/18 08:33:45;;;;;;;10.70;4.63;;;;;;;;;;5052563;28;20225;-82
2023/09/18 08:36:11;;;;;;;8.33;6.47;;;;;;;;;;5052938;28;20177;-81
2023/09/18 08:38:37;;;;;;;5.83;5.33;;;;;;;;;;5052939;28;20226;-78
2023/09/18 08:41:04;;;;;;;7.63;5.83;;;;;;;;;;5052798;28;20984;-80
2023/09/18 08:43:31;;;;;;;6.17;5.57;;;;;;;;;;5052744;28;20247;-80
2023/09/18 08:46:01;;;;;;;5.67;5.17;;;;;;;;;;5052528;28;20428;-81
2023/09/18 08:48:34;;;;;;;6.63;6.03;;;;;;;;;;5052392;28;20414;-81
2023/09/18 08:51:00;;;;;;;6.73;6.10;;;;;;;;;;5052703;28;20508;-80
2023/09/18 08:53:26;;;;;;;6.03;5.47;;;;;;;;;;5052725;28;20483;-79
2023/09/18 08:55:57;;;;;;;5.80;5.30;;;;;;;;;;5052696;28;20409;-80
2023/09/18 08:58:23;;;;;;;5.80;5.30;;;;;;;;;;5052857;28;20428;-80
2023/09/18 09:00:49;;;;;;;5.53;4.90;;;;;;;;;;5052646;28;20408;-79
2023/09/18 09:03:16;;;;;;;5.73;5.10;;;;;;;;;;5052376;28;20416;-79
2023/09/18 09:05:45;;;;;;;5.87;4.60;;;;;;;;;;5052714;28;20427;-80
2023/09/18 09:08:11;;;;;;;4.90;4.40;;;;;;;;;;5052454;28;20415;-82
2023/09/18 09:10:37;;;;;;;4.97;4.50;;;;;;;;;;5051076;28;20530;-81
2023/09/18 09:13:05;;;;;;;5.10;3.83;;;;;;;;;;5052544;28;20700;-81
2023/09/18 09:15:47;;;;;;;4.63;4.30;;;;;;;;;;5052555;28;20164;-79
2023/09/18 09:18:16;;;;;;;5.40;3.80;;;;;;;;;;5054728;28;20410;-79
2023/09/18 09:20:59;;;;;;;6.63;4.43;;;;;;;;;;5056311;28;20494;-80
2023/09/18 09:23:31;;;;;;;4.43;4.03;;;;;;;;;;5055013;28;20423;-78
2023/09/18 09:26:13;;;;;;;5.00;4.50;;;;;;;;;;5056471;28;20444;-81
2023/09/18 09:28:42;;;;;;;4.23;3.83;;;;;;;;;;5056187;28;20425;-80
2023/09/18 09:31:08;;;;;;;5.00;4.50;;;;;;;;;;5056172;28;21006;-82
2023/09/18 09:33:34;;;;;;;4.90;3.70;;;;;;;;;;5054482;28;20419;-80
2023/09/18 09:36:00;;;;;;;4.43;4.03;;;;;;;;;;5056163;28;20177;-80
2023/09/18 09:38:33;;;;;;;5.13;4.63;;;;;;;;;;5056131;28;20410;-81
2023/09/18 09:41:00;;;;;;;4.53;4.00;;;;;;;;;;5056293;28;20411;-80
2023/09/18 09:43:26;;;;;;;4.40;4.00;;;;;;;;;;5055293;28;20441;-84
2023/09/18 09:45:58;;;;;;;4.63;4.23;;;;;;;;;;5055164;28;20423;-84
2023/09/18 09:48:25;;;;;;;5.37;3.53;;;;;;;;;;5056180;28;20409;-82
2023/09/18 09:50:51;;;;;;;4.23;3.83;;;;;;;;;;5054013;28;20510;-82
2023/09/18 09:53:18;;;;;;;4.33;3.93;;;;;;;;;;5056295;28;20422;-82
2023/09/18 09:55:44;;;;;;;4.60;4.20;;;;;;;;;;5058481;28;20812;-82
2023/09/18 09:58:10;;;;;;;5.07;3.90;;;;;;;;;;5056260;28;20459;-82
2023/09/18 10:00:40;;;;;;;4.33;3.93;;;;;;;;;;5058935;28;20423;-86
2023/09/18 10:03:08;;;;;;;5.00;4.50;;;;;;;;;;5057334;28;20532;-88
2023/09/18 10:05:44;;;;;;;4.40;3.70;;;;;;;;;;5059971;28;20481;-86
2023/09/18 10:08:15;;;;;;;4.77;4.17;;;;;;;;;;5059999;28;20528;-90
2023/09/18 10:10:47;;;;;;;8.30;4.47;;;;;;;;;;5060182;28;21009;-89
2023/09/18 10:13:16;;;;;;;4.47;3.70;;;;;;;;;;5059878;28;20422;-87
2023/09/18 10:15:43;;;;;;;4.17;3.10;;;;;;;;;;5060523;28;20780;-87
2023/09/18 10:18:17;;;;;;;4.90;4.07;;;;;;;;;;5059821;28;20496;-85
2023/09/18 10:20:43;;;;;;;5.70;4.40;;;;;;;;;;5059161;28;20415;-86
2023/09/18 10:23:14;;;;;;;5.17;4.30;;;;;;;;;;5059035;28;20501;-85
2023/09/18 10:25:41;;;;;;;5.80;4.10;;;;;;;;;;5059588;28;20426;-85
2023/09/18 10:28:08;;;;;;;6.47;4.60;;;;;;;;;;5058619;28;20430;-86
2023/09/18 10:30:37;;;;;;;4.50;4.10;;;;;;;;;;5057999;28;20489;-86
2023/09/18 10:33:03;;;;;;;6.30;4.90;;;;;;;;;;5057614;28;20465;-86
2023/09/18 10:35:29;;;;;;;6.30;4.10;;;;;;;;;;5059446;28;20412;-84
2023/09/18 10:37:55;;;;;;;4.10;3.70;;;;;;;;;;5058986;28;20991;-84
2023/09/18 10:40:22;;;;;;;4.10;3.30;;;;;;;;;;5058412;28;20506;-85
2023/09/18 10:42:48;;;;;;;6.00;4.00;;;;;;;;;;5058398;28;20429;-84
2023/09/18 10:45:15;;;;;;;5.47;3.30;;;;;;;;;;5057158;28;20908;-88
2023/09/18 10:47:43;;;;;;;4.83;3.83;;;;;;;;;;5057907;28;20415;-85
2023/09/18 10:50:09;;;;;;;5.23;3.87;;;;;;;;;;5058057;28;20446;-83
2023/09/18 10:52:36;;;;;;;4.30;3.33;;;;;;;;;;5073334;28;20418;-85
2023/09/18 10:55:04;;;;;;;5.83;4.03;;;;;;;;;;5058205;28;20461;-86
2023/09/18 10:57:34;;;;;;;7.27;4.27;;;;;;;;;;5057614;28;20415;-83
2023/09/18 11:00:00;;;;;;;5.13;4.40;;;;;;;;;;5057749;28;20466;-83
2023/09/18 11:02:28;;;;;;;5.13;4.13;;;;;;;;;;5054333;28;20472;-81
2023/09/18 11:04:54;;;;;;;6.13;4.73;;;;;;;;;;5054577;28;20415;-83
2023/09/18 11:07:21;;;;;;;3.50;3.10;;;;;;;;;;5054500;28;20774;-83
2023/09/18 11:09:47;;;;;;;4.97;3.67;;;;;;;;;;5054189;28;20513;-80
2023/09/18 11:12:15;;;;;;;7.70;4.23;;;;;;;;;;5054307;28;20474;-81
2023/09/18 11:14:45;;;;;;;4.23;3.30;;;;;;;;;;5054349;28;20433;-78
2023/09/18 11:17:49;;;;;;;4.80;4.33;;;;;;;;;;5054148;28;20403;-83
2023/09/18 11:20:20;;;;;;;6.13;3.83;;;;;;;;;;4995949;28;20412;-84
2023/09/18 11:22:48;;;;;;;6.20;4.03;;;;;;;;;;5047876;28;20482;-83
2023/09/18 11:25:30;;;;;;;5.03;4.20;;;;;;;;;;5054036;28;20905;-82
2023/09/18 11:28:03;;;;;;;5.40;4.17;;;;;;;;;;5054099;28;20420;-83
2023/09/18 11:30:29;;;;;;;4.50;3.33;;;;;;;;;;5053977;28;20476;-81
2023/09/18 11:32:56;;;;;;;7.73;4.20;;;;;;;;;;5053626;28;20508;-83
2023/09/18 11:35:22;;;;;;;4.97;4.37;;;;;;;;;;5053764;28;20479;-80
2023/09/18 11:38:05;;;;;;;4.33;3.80;;;;;;;;;;5053856;28;20404;-81
2023/09/18 11:40:34;;;;;;;4.97;3.47;;;;;;;;;;5053535;28;20455;-83
2023/09/18 11:43:18;;;;;;;7.10;4.00;;;;;;;;;;5053810;28;20408;-82
2023/09/18 11:45:47;;;;;;;6.27;3.43;;;;;;;;;;5053679;28;20404;-81
2023/09/18 11:48:14;;;;;;;5.90;2.70;;;;;;;;;;5053277;28;20834;-84
2023/09/18 11:50:42;;;;;;;4.33;3.80;;;;;;;;;;5053501;28;20554;-83
2023/09/18 11:53:08;;;;;;;6.90;2.93;;;;;;;;;;5053623;28;20458;-82
2023/09/18 11:55:34;;;;;;;7.23;3.30;;;;;;;;;;5053508;28;20762;-81
2023/09/18 11:58:01;;;;;;;4.80;3.40;;;;;;;;;;5053291;28;20404;-81
2023/09/18 12:00:28;;;;;;;5.73;2.63;;;;;;;;;;5053021;28;20416;-80
2023/09/18 12:03:15;;;;;;;6.50;2.63;;;;;;;;;;5052549;28;20404;-82
2023/09/18 12:05:41;;;;;;;5.07;2.40;;;;;;;;;;5052480;28;20401;-83
2023/09/18 12:08:07;;;;;;;4.83;2.60;;;;;;;;;;5052862;28;20443;-82
2023/09/18 12:10:33;;;;;;;5.10;2.53;;;;;;;;;;5052559;28;20936;-82
2023/09/18 12:12:59;;;;;;;7.80;3.17;;;;;;;;;;5052719;28;20212;-81
2023/09/18 12:15:25;;;;;;;3.70;1.70;;;;;;;;;;5052761;28;20169;-81
2023/09/18 12:17:55;;;;;;;5.87;1.50;;;;;;;;;;5052306;28;20412;-81
2023/09/18 12:20:21;;;;;;;3.60;1.57;;;;;;;;;;5052643;28;20173;-81
2023/09/18 12:22:50;;;;;;;4.33;1.60;;;;;;;;;;5052642;28;20427;-81
2023/09/18 12:25:22;;;;;;;5.70;2.07;;;;;;;;;;5051065;28;20672;-82
2023/09/18 12:27:51;;;;;;;5.13;1.80;;;;;;;;;;5050505;28;20408;-82
2023/09/18 12:30:22;;;;;;;7.73;1.40;;;;;;;;;;5052383;28;20451;-82
2023/09/18 12:32:48;;;;;;;4.10;1.60;;;;;;;;;;5049718;28;20400;-82
2023/09/18 12:35:14;;;;;;;7.03;1.90;;;;;;;;;;5052351;28;20435;-82
2023/09/18 12:37:41;;;;;;;3.00;1.40;;;;;;;;;;5052180;28;20483;-83
2023/09/18 12:40:10;;;;;;;4.00;1.20;;;;;;;;;;5052278;28;20748;-83
2023/09/18 12:42:43;;;;;;;4.40;1.90;;;;;;;;;;5052199;28;20466;-82
2023/09/18 12:45:09;;;;;;;4.87;1.30;;;;;;;;;;5050209;28;20904;-80
2023/09/18 12:47:39;;;;;;;5.17;1.80;;;;;;;;;;5052447;28;20497;-80
2023/09/18 12:50:06;;;;;;;4.47;1.60;;;;;;;;;;5052710;28;20495;-81
2023/09/18 12:52:33;;;;;;;4.90;1.30;;;;;;;;;;5052829;28;20481;-80
2023/09/18 12:55:01;;;;;;;3.80;1.53;;;;;;;;;;5056883;28;20412;-81
2023/09/18 12:57:28;;;;;;;4.23;1.33;;;;;;;;;;5056861;28;20507;-82
2023/09/18 12:59:55;;;;;;;4.37;1.97;;;;;;;;;;5056868;28;20408;-80
2023/09/18 13:02:21;;;;;;;4.13;1.50;;;;;;;;;;5052989;28;20431;-79
2023/09/18 13:04:54;;;;;;;3.67;1.20;;;;;;;;;;5046124;28;20412;-81
2023/09/18 13:07:21;;;;;;;3.13;1.40;;;;;;;;;;5046187;28;20416;-80
2023/09/18 13:10:22;;;;;;;4.83;0.83;;;;;;;;;;5040277;28;20460;-82
2023/09/18 13:12:55;;;;;;;4.30;1.30;;;;;;;;;;5025367;28;20537;-79
2023/09/18 13:15:31;;;;;;;5.50;1.30;;;;;;;;;;5041011;28;20920;-80
2023/09/18 13:18:01;;;;;;;1.83;0.60;;;;;;;;;;5037188;28;20425;-80
2023/09/18 13:20:28;;;;;;;3.07;0.80;;;;;;;;;;5043256;28;20476;-82
2023/09/18 13:22:56;;;;;;;7.23;1.70;;;;;;;;;;5056310;28;20412;-82
2023/09/18 13:25:23;;;;;;;3.83;1.03;;;;;;;;;;5056242;28;20415;-82
2023/09/18 13:27:50;;;;;;;7.83;1.50;;;;;;;;;;5055613;28;20408;-80
2023/09/18 13:30:21;;;;;;;6.97;1.50;;;;;;;;;;5056051;28;20543;-83
2023/09/18 13:32:50;;;;;;;4.40;1.10;;;;;;;;;;5055796;28;20431;-79
2023/09/18 13:35:16;;;;;;;7.90;1.80;;;;;;;;;;5056099;28;20764;-81
2023/09/18 13:37:43;;;;;;;4.40;1.40;;;;;;;;;;5055889;28;20447;-80
2023/09/18 13:40:09;;;;;;;3.40;1.60;;;;;;;;;;5055820;28;20408;-81
2023/09/18 13:42:35;;;;;;;5.63;2.20;;;;;;;;;;5055904;28;20416;-81
2023/09/18 13:45:04;;;;;;;5.10;1.57;;;;;;;;;;5055736;28;20412;-81
2023/09/18 13:47:30;;;;;;;4.10;1.83;;;;;;;;;;5055433;28;20866;-83
2023/09/18 13:49:59;;;;;;;3.60;1.60;;;;;;;;;;5055568;28;20908;-82
2023/09/18 13:52:32;;;;;;;6.50;1.83;;;;;;;;;;5055509;28;20427;-82
2023/09/18 13:54:58;;;;;;;3.07;1.40;;;;;;;;;;5055683;28;20423;-82
2023/09/18 13:57:25;;;;;;;4.80;1.33;;;;;;;;;;5055628;28;20487;-83
2023/09/18 13:59:52;;;;;;;4.30;1.50;;;;;;;;;;5055196;28;20424;-80
2023/09/18 14:02:18;;;;;;;4.93;1.60;;;;;;;;;;5053960;28;20782;-80
2023/09/18 14:04:44;;;;;;;3.47;1.83;;;;;;;;;;5055083;28;20428;-81
2023/09/18 14:07:11;;;;;;;4.47;1.40;;;;;;;;;;5054830;28;20431;-85
2023/09/18 14:09:37;;;;;;;2.37;1.07;;;;;;;;;;5054975;28;20478;-81
2023/09/18 14:12:03;;;;;;;2.97;1.60;;;;;;;;;;5055396;28;20825;-83
2023/09/18 14:14:31;;;;;;;4.40;1.70;;;;;;;;;;5055232;28;20411;-82
2023/09/18 14:16:58;;;;;;;6.40;1.57;;;;;;;;;;5054876;28;20502;-83
2023/09/18 14:19:24;;;;;;;5.13;1.90;;;;;;;;;;5055330;28;20425;-87
2023/09/18 14:21:50;;;;;;;4.47;1.40;;;;;;;;;;5054746;28;20439;-82
2023/09/18 14:24:21;;;;;;;4.13;1.70;;;;;;;;;;5054922;28;20204;-81
2023/09/18 14:26:47;;;;;;;2.87;0.93;;;;;;;;;;5055110;28;20949;-81
2023/09/18 14:29:13;;;;;;;3.10;0.90;;;;;;;;;;5054976;28;20533;-81
2023/09/18 14:31:39;;;;;;;3.90;1.43;;;;;;;;;;5054678;28;20570;-83
2023/09/18 14:34:06;;;;;;;2.03;1.10;;;;;;;;;;5053009;28;20439;-80
2023/09/18 14:36:35;;;;;;;3.87;1.50;;;;;;;;;;5054008;28;20969;-81
2023/09/18 14:39:01;;;;;;;4.73;1.30;;;;;;;;;;5054837;28;20498;-80
2023/09/18 14:41:27;;;;;;;5.97;1.30;;;;;;;;;;5054550;28;20581;-81
2023/09/18 14:43:54;;;;;;;4.20;1.23;;;;;;;;;;5054280;28;20422;-84